sensor_id;sensor_type;location;lat;lon;timestamp;P1;durP1;ratioP1;P2;durP2;ratioP2
45842;SDS011;31563;51.744;8.252;2023-07-29T14:24:03;7.03;;;1.75;;
45842;SDS011;31563;51.744;8.252;2023-07-29T14:27:49;1.40;;;0.90;;
45842;SDS011;31563;51.744;8.252;2023-07-29T14:32:45;2.60;;;0.70;;
45842;SDS011;31563;51.744;8.252;2023-07-29T14:35:13;1.50;;;1.02;;
45842;SDS011;31563;51.744;8.252;2023-07-29T14:37:40;1.48;;;0.98;;
45842;SDS011;31563;51.744;8.252;2023-07-29T14:40:08;3.60;;;1.20;;
45842;SDS011;31563;51.744;8.252;2023-07-29T14:42:37;1.83;;;1.23;;
45842;SDS011;31563;51.744;8.252;2023-07-29T14:45:07;1.30;;;0.82;;
45842;SDS011;31563;51.744;8.252;2023-07-29T14:47:35;1.17;;;0.80;;
45842;SDS011;31563;51.744;8.252;2023-07-29T14:50:03;2.88;;;1.10;;
45842;SDS011;31563;51.744;8.252;2023-07-29T14:52:31;1.87;;;0.77;;
45842;SDS011;31563;51.744;8.252;2023-07-29T14:54:59;1.45;;;1.35;;
45842;SDS011;31563;51.744;8.252;2023-07-29T14:57:27;1.77;;;1.02;;
45842;SDS011;31563;51.744;8.252;2023-07-29T14:59:55;1.85;;;0.90;;
45842;SDS011;31563;51.744;8.252;2023-07-29T15:02:25;2.25;;;1.30;;
45842;SDS011;31563;51.744;8.252;2023-07-29T15:04:53;1.23;;;1.10;;
45842;SDS011;31563;51.744;8.252;2023-07-29T15:07:21;2.17;;;1.05;;
45842;SDS011;31563;51.744;8.252;2023-07-29T15:09:49;1.20;;;1.00;;
45842;SDS011;31563;51.744;8.252;2023-07-29T15:12:17;2.70;;;0.90;;
45842;SDS011;31563;51.744;8.252;2023-07-29T15:14:45;2.17;;;1.08;;
45842;SDS011;31563;51.744;8.252;2023-07-29T15:17:14;2.38;;;1.23;;
45842;SDS011;31563;51.744;8.252;2023-07-29T15:19:43;1.63;;;0.90;;
45842;SDS011;31563;51.744;8.252;2023-07-29T15:22:16;2.33;;;0.82;;
45842;SDS011;31563;51.744;8.252;2023-07-29T15:24:44;1.95;;;0.75;;
45842;SDS011;31563;51.744;8.252;2023-07-29T15:27:12;2.23;;;0.63;;
45842;SDS011;31563;51.744;8.252;2023-07-29T15:29:40;1.85;;;1.05;;
45842;SDS011;31563;51.744;8.252;2023-07-29T15:32:08;3.65;;;1.00;;
45842;SDS011;31563;51.744;8.252;2023-07-29T15:34:37;2.78;;;1.00;;
45842;SDS011;31563;51.744;8.252;2023-07-29T15:37:06;3.90;;;0.80;;
45842;SDS011;31563;51.744;8.252;2023-07-29T15:39:34;3.22;;;0.70;;
45842;SDS011;31563;51.744;8.252;2023-07-29T15:42:02;2.42;;;0.77;;
45842;SDS011;31563;51.744;8.252;2023-07-29T15:44:30;4.25;;;1.00;;
45842;SDS011;31563;51.744;8.252;2023-07-29T15:46:58;3.30;;;1.70;;
45842;SDS011;31563;51.744;8.252;2023-07-29T15:49:26;2.20;;;1.15;;
45842;SDS011;31563;51.744;8.252;2023-07-29T15:51:54;1.90;;;1.15;;
45842;SDS011;31563;51.744;8.252;2023-07-29T15:54:24;2.03;;;1.00;;
45842;SDS011;31563;51.744;8.252;2023-07-29T15:56:52;4.38;;;0.95;;
45842;SDS011;31563;51.744;8.252;2023-07-29T15:59:20;5.95;;;0.93;;
45842;SDS011;31563;51.744;8.252;2023-07-29T16:04:17;2.22;;;1.00;;
45842;SDS011;31563;51.744;8.252;2023-07-29T16:06:45;2.08;;;0.80;;
45842;SDS011;31563;51.744;8.252;2023-07-29T16:09:13;2.30;;;1.02;;
45842;SDS011;31563;51.744;8.252;2023-07-29T16:11:42;2.35;;;1.05;;
45842;SDS011;31563;51.744;8.252;2023-07-29T16:14:10;2.35;;;0.85;;
45842;SDS011;31563;51.744;8.252;2023-07-29T16:16:38;2.67;;;0.98;;
45842;SDS011;31563;51.744;8.252;2023-07-29T16:19:07;1.60;;;0.77;;
45842;SDS011;31563;51.744;8.252;2023-07-29T16:21:35;1.52;;;0.60;;
45842;SDS011;31563;51.744;8.252;2023-07-29T16:24:03;2.17;;;0.90;;
45842;SDS011;31563;51.744;8.252;2023-07-29T16:26:31;2.42;;;0.80;;
45842;SDS011;31563;51.744;8.252;2023-07-29T16:29:01;2.10;;;0.40;;
45842;SDS011;31563;51.744;8.252;2023-07-29T16:31:30;0.98;;;0.43;;
45842;SDS011;31563;51.744;8.252;2023-07-29T16:33:58;0.93;;;0.45;;
45842;SDS011;31563;51.744;8.252;2023-07-29T16:36:26;1.98;;;0.60;;
45842;SDS011;31563;51.744;8.252;2023-07-29T16:38:55;1.48;;;0.50;;
45842;SDS011;31563;51.744;8.252;2023-07-29T16:41:23;1.60;;;0.50;;
45842;SDS011;31563;51.744;8.252;2023-07-29T16:44:12;0.65;;;0.30;;
45842;SDS011;31563;51.744;8.252;2023-07-29T16:46:40;0.40;;;0.30;;
45842;SDS011;31563;51.744;8.252;2023-07-29T16:49:08;2.53;;;0.52;;
45842;SDS011;31563;51.744;8.252;2023-07-29T16:51:48;0.67;;;0.30;;
45842;SDS011;31563;51.744;8.252;2023-07-29T16:56:45;0.60;;;0.23;;
45842;SDS011;31563;51.744;8.252;2023-07-29T16:59:15;0.90;;;0.23;;
45842;SDS011;31563;51.744;8.252;2023-07-29T17:04:11;0.60;;;0.32;;
45842;SDS011;31563;51.744;8.252;2023-07-29T17:06:39;1.15;;;0.32;;
45842;SDS011;31563;51.744;8.252;2023-07-29T17:09:07;0.40;;;0.20;;
45842;SDS011;31563;51.744;8.252;2023-07-29T17:11:35;1.58;;;0.30;;
45842;SDS011;31563;51.744;8.252;2023-07-29T17:14:03;0.85;;;0.30;;
45842;SDS011;31563;51.744;8.252;2023-07-29T17:16:33;0.85;;;0.30;;
45842;SDS011;31563;51.744;8.252;2023-07-29T17:19:02;0.30;;;0.30;;
45842;SDS011;31563;51.744;8.252;2023-07-29T17:21:30;1.73;;;0.30;;
45842;SDS011;31563;51.744;8.252;2023-07-29T17:23:58;0.40;;;0.30;;
45842;SDS011;31563;51.744;8.252;2023-07-29T17:26:26;2.47;;;0.40;;
45842;SDS011;31563;51.744;8.252;2023-07-29T17:28:54;0.73;;;0.40;;
45842;SDS011;31563;51.744;8.252;2023-07-29T17:31:22;4.45;;;0.85;;
45842;SDS011;31563;51.744;8.252;2023-07-29T17:33:51;1.00;;;0.50;;
45842;SDS011;31563;51.744;8.252;2023-07-29T17:38:48;1.63;;;0.60;;
45842;SDS011;31563;51.744;8.252;2023-07-29T17:41:16;1.55;;;0.30;;
45842;SDS011;31563;51.744;8.252;2023-07-29T17:43:44;0.70;;;0.22;;
45842;SDS011;31563;51.744;8.252;2023-07-29T17:46:14;1.05;;;0.40;;
45842;SDS011;31563;51.744;8.252;2023-07-29T17:48:43;0.90;;;0.40;;
45842;SDS011;31563;51.744;8.252;2023-07-29T17:51:13;1.45;;;0.40;;
45842;SDS011;31563;51.744;8.252;2023-07-29T17:53:41;1.52;;;0.40;;
45842;SDS011;31563;51.744;8.252;2023-07-29T17:56:09;1.05;;;0.40;;
45842;SDS011;31563;51.744;8.252;2023-07-29T17:58:37;1.92;;;0.50;;
45842;SDS011;31563;51.744;8.252;2023-07-29T18:01:05;1.45;;;0.40;;
45842;SDS011;31563;51.744;8.252;2023-07-29T18:03:33;1.08;;;0.40;;
45842;SDS011;31563;51.744;8.252;2023-07-29T18:06:01;1.88;;;0.30;;
45842;SDS011;31563;51.744;8.252;2023-07-29T18:08:30;1.13;;;0.30;;
45842;SDS011;31563;51.744;8.252;2023-07-29T18:11:00;0.57;;;0.32;;
45842;SDS011;31563;51.744;8.252;2023-07-29T18:13:28;2.17;;;0.50;;
45842;SDS011;31563;51.744;8.252;2023-07-29T18:15:56;1.00;;;0.40;;
45842;SDS011;31563;51.744;8.252;2023-07-29T18:18:25;0.75;;;0.20;;
45842;SDS011;31563;51.744;8.252;2023-07-29T18:20:53;1.30;;;0.40;;
45842;SDS011;31563;51.744;8.252;2023-07-29T18:23:21;2.35;;;0.45;;
45842;SDS011;31563;51.744;8.252;2023-07-29T18:28:23;1.27;;;0.40;;
45842;SDS011;31563;51.744;8.252;2023-07-29T18:30:51;0.60;;;0.30;;
45842;SDS011;31563;51.744;8.252;2023-07-29T18:33:19;1.25;;;0.32;;
45842;SDS011;31563;51.744;8.252;2023-07-29T18:35:47;1.85;;;0.55;;
45842;SDS011;31563;51.744;8.252;2023-07-29T18:38:16;1.20;;;0.52;;
45842;SDS011;31563;51.744;8.252;2023-07-29T18:40:43;0.80;;;0.40;;
45842;SDS011;31563;51.744;8.252;2023-07-29T18:43:13;1.90;;;0.60;;
45842;SDS011;31563;51.744;8.252;2023-07-29T18:45:41;2.38;;;0.60;;
45842;SDS011;31563;51.744;8.252;2023-07-29T18:48:09;1.58;;;0.80;;
45842;SDS011;31563;51.744;8.252;2023-07-29T18:50:36;1.52;;;0.80;;
45842;SDS011;31563;51.744;8.252;2023-07-29T18:53:04;1.98;;;0.60;;
45842;SDS011;31563;51.744;8.252;2023-07-29T18:55:32;1.83;;;0.68;;
45842;SDS011;31563;51.744;8.252;2023-07-29T18:58:00;0.88;;;0.50;;
45842;SDS011;31563;51.744;8.252;2023-07-29T19:00:29;2.92;;;0.90;;
45842;SDS011;31563;51.744;8.252;2023-07-29T19:02:59;3.85;;;0.90;;
45842;SDS011;31563;51.744;8.252;2023-07-29T19:05:27;1.88;;;0.60;;
45842;SDS011;31563;51.744;8.252;2023-07-29T19:07:55;0.93;;;0.63;;
45842;SDS011;31563;51.744;8.252;2023-07-29T19:10:23;3.10;;;0.90;;
45842;SDS011;31563;51.744;8.252;2023-07-29T19:12:51;1.83;;;0.98;;
45842;SDS011;31563;51.744;8.252;2023-07-29T19:15:22;2.38;;;1.15;;
45842;SDS011;31563;51.744;8.252;2023-07-29T19:17:51;2.58;;;0.82;;
45842;SDS011;31563;51.744;8.252;2023-07-29T19:20:20;2.38;;;0.90;;
45842;SDS011;31563;51.744;8.252;2023-07-29T19:22:48;0.90;;;0.60;;
45842;SDS011;31563;51.744;8.252;2023-07-29T19:25:16;2.20;;;0.85;;
45842;SDS011;31563;51.744;8.252;2023-07-29T19:27:44;2.45;;;0.80;;
45842;SDS011;31563;51.744;8.252;2023-07-29T19:30:12;3.33;;;0.90;;
45842;SDS011;31563;51.744;8.252;2023-07-29T19:32:41;2.40;;;0.65;;
45842;SDS011;31563;51.744;8.252;2023-07-29T19:35:11;0.82;;;0.60;;
45842;SDS011;31563;51.744;8.252;2023-07-29T19:37:38;1.45;;;0.70;;
45842;SDS011;31563;51.744;8.252;2023-07-29T19:40:07;1.50;;;0.70;;
45842;SDS011;31563;51.744;8.252;2023-07-29T19:42:35;1.02;;;0.50;;
45842;SDS011;31563;51.744;8.252;2023-07-29T19:45:03;1.10;;;0.60;;
45842;SDS011;31563;51.744;8.252;2023-07-29T19:47:32;3.78;;;0.90;;
45842;SDS011;31563;51.744;8.252;2023-07-29T19:49:59;3.67;;;0.80;;
45842;SDS011;31563;51.744;8.252;2023-07-29T19:52:29;2.38;;;0.85;;
45842;SDS011;31563;51.744;8.252;2023-07-29T19:54:56;1.52;;;0.75;;
45842;SDS011;31563;51.744;8.252;2023-07-29T19:57:24;2.15;;;1.23;;
45842;SDS011;31563;51.744;8.252;2023-07-29T19:59:52;3.88;;;0.80;;
45842;SDS011;31563;51.744;8.252;2023-07-29T20:02:20;2.15;;;1.00;;
45842;SDS011;31563;51.744;8.252;2023-07-29T20:04:48;3.92;;;1.52;;
45842;SDS011;31563;51.744;8.252;2023-07-29T20:07:17;3.72;;;1.40;;
45842;SDS011;31563;51.744;8.252;2023-07-29T20:09:46;2.38;;;1.05;;
45842;SDS011;31563;51.744;8.252;2023-07-29T20:12:14;2.25;;;1.10;;
45842;SDS011;31563;51.744;8.252;2023-07-29T20:14:42;3.92;;;1.15;;
45842;SDS011;31563;51.744;8.252;2023-07-29T20:17:09;2.13;;;0.85;;
45842;SDS011;31563;51.744;8.252;2023-07-29T20:19:37;3.38;;;1.00;;
45842;SDS011;31563;51.744;8.252;2023-07-29T20:22:05;2.67;;;1.30;;
45842;SDS011;31563;51.744;8.252;2023-07-29T20:24:33;2.70;;;1.50;;
45842;SDS011;31563;51.744;8.252;2023-07-29T20:27:02;2.30;;;1.30;;
45842;SDS011;31563;51.744;8.252;2023-07-29T20:29:31;2.28;;;1.27;;
45842;SDS011;31563;51.744;8.252;2023-07-29T20:31:59;2.22;;;1.50;;
45842;SDS011;31563;51.744;8.252;2023-07-29T20:34:26;2.92;;;1.38;;
45842;SDS011;31563;51.744;8.252;2023-07-29T20:36:54;4.32;;;1.42;;
45842;SDS011;31563;51.744;8.252;2023-07-29T20:39:22;2.22;;;1.30;;
45842;SDS011;31563;51.744;8.252;2023-07-29T20:41:50;3.22;;;1.45;;
45842;SDS011;31563;51.744;8.252;2023-07-29T20:44:19;1.67;;;1.42;;
45842;SDS011;31563;51.744;8.252;2023-07-29T20:46:47;2.53;;;1.23;;
45842;SDS011;31563;51.744;8.252;2023-07-29T20:49:16;2.67;;;1.60;;
45842;SDS011;31563;51.744;8.252;2023-07-29T20:51:44;1.60;;;1.40;;
45842;SDS011;31563;51.744;8.252;2023-07-29T20:54:12;1.88;;;1.40;;
45842;SDS011;31563;51.744;8.252;2023-07-29T20:56:40;1.50;;;1.00;;
45842;SDS011;31563;51.744;8.252;2023-07-29T20:59:08;1.33;;;0.90;;
45842;SDS011;31563;51.744;8.252;2023-07-29T21:01:38;1.83;;;1.15;;
45842;SDS011;31563;51.744;8.252;2023-07-29T21:06:35;2.17;;;1.00;;
45842;SDS011;31563;51.744;8.252;2023-07-29T21:09:04;2.38;;;1.23;;
45842;SDS011;31563;51.744;8.252;2023-07-29T21:11:32;1.33;;;0.90;;
45842;SDS011;31563;51.744;8.252;2023-07-29T21:14:00;0.82;;;0.65;;
45842;SDS011;31563;51.744;8.252;2023-07-29T21:16:28;3.58;;;0.93;;
45842;SDS011;31563;51.744;8.252;2023-07-29T21:18:57;1.52;;;0.82;;
45842;SDS011;31563;51.744;8.252;2023-07-29T21:21:25;3.40;;;0.85;;
45842;SDS011;31563;51.744;8.252;2023-07-29T21:23:53;2.13;;;0.80;;
45842;SDS011;31563;51.744;8.252;2023-07-29T21:26:21;1.13;;;0.80;;
45842;SDS011;31563;51.744;8.252;2023-07-29T21:28:49;2.58;;;1.10;;
45842;SDS011;31563;51.744;8.252;2023-07-29T21:31:17;1.42;;;1.00;;
45842;SDS011;31563;51.744;8.252;2023-07-29T21:33:45;1.77;;;0.95;;
45842;SDS011;31563;51.744;8.252;2023-07-29T21:36:14;2.85;;;1.20;;
45842;SDS011;31563;51.744;8.252;2023-07-29T21:38:42;1.52;;;1.02;;
45842;SDS011;31563;51.744;8.252;2023-07-29T21:41:10;0.90;;;0.70;;
45842;SDS011;31563;51.744;8.252;2023-07-29T21:43:38;1.42;;;1.05;;
45842;SDS011;31563;51.744;8.252;2023-07-29T21:46:06;2.17;;;1.23;;
45842;SDS011;31563;51.744;8.252;2023-07-29T21:48:34;1.65;;;0.90;;
45842;SDS011;31563;51.744;8.252;2023-07-29T21:51:02;4.32;;;0.80;;
45842;SDS011;31563;51.744;8.252;2023-07-29T21:53:31;2.65;;;0.90;;
45842;SDS011;31563;51.744;8.252;2023-07-29T21:56:00;1.80;;;0.63;;
45842;SDS011;31563;51.744;8.252;2023-07-29T21:58:28;1.17;;;1.08;;
45842;SDS011;31563;51.744;8.252;2023-07-29T22:00:56;2.03;;;1.00;;
45842;SDS011;31563;51.744;8.252;2023-07-29T22:03:24;1.50;;;0.85;;
45842;SDS011;31563;51.744;8.252;2023-07-29T22:05:52;1.85;;;1.00;;
45842;SDS011;31563;51.744;8.252;2023-07-29T22:08:20;1.98;;;0.90;;
45842;SDS011;31563;51.744;8.252;2023-07-29T22:10:49;1.77;;;0.90;;
45842;SDS011;31563;51.744;8.252;2023-07-29T22:13:17;1.88;;;1.20;;
45842;SDS011;31563;51.744;8.252;2023-07-29T22:15:45;1.77;;;0.68;;
45842;SDS011;31563;51.744;8.252;2023-07-29T22:18:13;1.52;;;0.77;;
45842;SDS011;31563;51.744;8.252;2023-07-29T22:20:41;2.47;;;1.05;;
45842;SDS011;31563;51.744;8.252;2023-07-29T22:23:18;2.03;;;0.73;;
45842;SDS011;31563;51.744;8.252;2023-07-29T22:25:55;1.10;;;0.80;;
45842;SDS011;31563;51.744;8.252;2023-07-29T22:28:23;1.60;;;0.90;;
45842;SDS011;31563;51.744;8.252;2023-07-29T22:30:51;1.08;;;0.98;;
45842;SDS011;31563;51.744;8.252;2023-07-29T22:33:19;2.05;;;1.02;;
45842;SDS011;31563;51.744;8.252;2023-07-29T22:35:48;1.33;;;0.80;;
45842;SDS011;31563;51.744;8.252;2023-07-29T22:38:16;1.45;;;0.88;;
45842;SDS011;31563;51.744;8.252;2023-07-29T22:40:49;2.38;;;0.82;;
45842;SDS011;31563;51.744;8.252;2023-07-29T22:43:20;2.72;;;1.15;;
45842;SDS011;31563;51.744;8.252;2023-07-29T22:48:20;2.25;;;0.88;;
45842;SDS011;31563;51.744;8.252;2023-07-29T22:50:48;0.90;;;0.75;;
45842;SDS011;31563;51.744;8.252;2023-07-29T22:53:16;3.55;;;0.82;;
45842;SDS011;31563;51.744;8.252;2023-07-29T22:55:45;2.58;;;0.80;;
45842;SDS011;31563;51.744;8.252;2023-07-29T22:58:14;2.65;;;1.15;;
45842;SDS011;31563;51.744;8.252;2023-07-29T23:00:46;1.60;;;0.90;;
45842;SDS011;31563;51.744;8.252;2023-07-29T23:03:14;2.88;;;1.10;;
45842;SDS011;31563;51.744;8.252;2023-07-29T23:05:42;1.13;;;0.70;;
45842;SDS011;31563;51.744;8.252;2023-07-29T23:08:10;1.00;;;0.60;;
45842;SDS011;31563;51.744;8.252;2023-07-29T23:10:38;2.60;;;1.20;;
45842;SDS011;31563;51.744;8.252;2023-07-29T23:13:06;3.63;;;0.82;;
45842;SDS011;31563;51.744;8.252;2023-07-29T23:15:35;2.78;;;1.05;;
45842;SDS011;31563;51.744;8.252;2023-07-29T23:18:05;2.67;;;0.98;;
45842;SDS011;31563;51.744;8.252;2023-07-29T23:20:34;3.17;;;0.85;;
45842;SDS011;31563;51.744;8.252;2023-07-29T23:23:03;1.27;;;1.07;;
45842;SDS011;31563;51.744;8.252;2023-07-29T23:25:31;1.83;;;1.30;;
45842;SDS011;31563;51.744;8.252;2023-07-29T23:27:59;3.88;;;1.20;;
45842;SDS011;31563;51.744;8.252;2023-07-29T23:30:27;2.92;;;1.20;;
45842;SDS011;31563;51.744;8.252;2023-07-29T23:32:55;1.98;;;1.13;;
45842;SDS011;31563;51.744;8.252;2023-07-29T23:35:24;1.95;;;1.08;;
45842;SDS011;31563;51.744;8.252;2023-07-29T23:37:52;4.38;;;1.17;;
45842;SDS011;31563;51.744;8.252;2023-07-29T23:40:20;2.00;;;1.17;;
45842;SDS011;31563;51.744;8.252;2023-07-29T23:42:48;3.15;;;0.80;;
45842;SDS011;31563;51.744;8.252;2023-07-29T23:45:16;4.65;;;0.95;;
45842;SDS011;31563;51.744;8.252;2023-07-29T23:47:44;1.55;;;0.85;;
45842;SDS011;31563;51.744;8.252;2023-07-29T23:50:12;2.75;;;1.40;;
45842;SDS011;31563;51.744;8.252;2023-07-29T23:52:41;2.97;;;1.50;;
45842;SDS011;31563;51.744;8.252;2023-07-29T23:55:09;2.38;;;1.20;;
45842;SDS011;31563;51.744;8.252;2023-07-29T23:57:37;2.53;;;1.10;;
